Accueil
METAR-TAF:

METAR-TAF

Aéroports :

Aéroport de Lahr

Lahr, Allemagne

latitude: 48-22-09N, longitude: 007-49-40E, altitude: 156 m

Observation

Le bulletin a été fait il y a 1 heure et 18 minutes, à 17:50 UTC
Vent 6 kt de nord/nord-est
Température 29°C
Humidité 48%
Pression 1017 hPa
Visibilité 10 km ou plus
pas de nuages en-dessous de 1500 mètres et pas de cumulonimbus.

METAR: EDTL 201750Z 03006KT CAVOK 29/17 Q1017

Heure: 21:08 (19:08 UTC)

Prévision

Le bulletin a été fait il y a 2 heures et 8 minutes, à 17:00 UTC
Prévision valable du 20 à 18 UTC au 20 à 24 UTC
Vent 5 kt de nord
Visibilité 10 km ou plus
pas de nuages en-dessous de 1500 mètres et pas de cumulonimbus.
Evoluant progressivement
du 20 à 18 UTC au 20 à 20 UTC
Vent 3 kt de direction variable

TAF: EDTL 201700Z 2018/2024 35005KT CAVOK BECMG 2018/2020 VRB03KT

Observations et prévisions météorologiques de plus de 4000 aéroports (messages METAR et TAF).

Les stations disponibles sont représentées par des disques jaunes et rouges sur la carte.

Passer la souris dessus pour voir le nom de la station.

Cliquer dessus pour voir les observations et prévisions météorologiques.

Pour changer de carte: cliquez sur les boutons verts avec une croix noire pour zoomer, sur le bouton vert avec un tiret pour effectuer un zoom arrière, ou sur les flèches vertes pour les cartes adjacentes.


METAR-TAF: